createdAt,value
2022-12-31T00:00:34.608Z,15.82
2022-12-31T00:03:37.372Z,13.77
2022-12-31T00:06:39.490Z,16.08
2022-12-31T00:09:41.449Z,14.63
2022-12-31T00:12:43.909Z,14.63
2022-12-31T00:15:46.466Z,14.30
2022-12-31T00:18:50.523Z,14.20
2022-12-31T00:21:52.525Z,12.50
2022-12-31T00:24:54.992Z,13.50
2022-12-31T00:27:57.344Z,14.02
2022-12-31T00:31:04.405Z,14.27
2022-12-31T00:34:07.000Z,14.55
2022-12-31T00:37:09.564Z,14.23
2022-12-31T00:40:11.539Z,14.27
2022-12-31T00:43:13.493Z,14.57
2022-12-31T00:46:15.863Z,16.38
2022-12-31T00:49:18.018Z,15.67
2022-12-31T00:52:19.961Z,16.70
2022-12-31T00:55:21.942Z,16.25
2022-12-31T00:58:24.293Z,17.95
2022-12-31T01:01:26.428Z,18.35
2022-12-31T01:04:28.885Z,18.98
2022-12-31T01:07:30.858Z,18.77
2022-12-31T01:10:51.992Z,18.07
2022-12-31T01:13:54.160Z,17.45
2022-12-31T01:16:56.175Z,18.25
2022-12-31T01:19:58.186Z,17.23
2022-12-31T01:23:00.532Z,16.17
2022-12-31T01:26:06.628Z,18.15
2022-12-31T01:29:08.946Z,18.20
2022-12-31T01:32:11.353Z,18.45
2022-12-31T01:35:13.460Z,19.42
2022-12-31T01:38:15.456Z,17.85
2022-12-31T01:41:21.459Z,20.40
2022-12-31T01:44:23.403Z,20.27
2022-12-31T01:47:30.873Z,20.13
2022-12-31T01:50:33.160Z,20.77
2022-12-31T01:53:39.295Z,19.73
2022-12-31T01:56:42.746Z,19.80
2022-12-31T01:59:45.280Z,18.48
2022-12-31T02:02:47.407Z,20.90
2022-12-31T02:05:51.791Z,20.13
2022-12-31T02:08:54.139Z,19.98
2022-12-31T02:11:56.101Z,19.77
2022-12-31T02:14:58.091Z,20.63
2022-12-31T02:18:16.000Z,20.33
2022-12-31T02:21:36.937Z,18.53
2022-12-31T02:24:44.020Z,19.13
2022-12-31T02:28:04.773Z,19.55
2022-12-31T02:31:16.870Z,20.20
2022-12-31T02:34:21.947Z,19.00
2022-12-31T02:37:23.939Z,18.17
2022-12-31T02:40:25.974Z,20.42
2022-12-31T02:43:27.992Z,18.60
2022-12-31T02:46:33.387Z,20.13
2022-12-31T02:49:41.156Z,19.08
2022-12-31T02:53:01.066Z,18.73
2022-12-31T02:56:02.996Z,19.08
2022-12-31T02:59:28.565Z,18.83
2022-12-31T03:02:30.693Z,20.45
2022-12-31T03:05:33.793Z,17.75
2022-12-31T03:08:56.258Z,20.13
2022-12-31T03:12:16.981Z,19.67
2022-12-31T03:15:20.634Z,18.13
2022-12-31T03:18:43.856Z,19.80
2022-12-31T03:22:04.938Z,18.67
2022-12-31T03:25:29.894Z,18.70
2022-12-31T03:28:32.229Z,19.60
2022-12-31T03:31:34.197Z,18.50
2022-12-31T03:34:36.163Z,19.48
2022-12-31T03:37:39.665Z,19.85
2022-12-31T03:40:46.216Z,20.23
2022-12-31T03:43:48.928Z,19.40
2022-12-31T03:46:50.933Z,19.07
2022-12-31T03:49:52.901Z,20.08
2022-12-31T03:52:55.285Z,19.60
2022-12-31T03:55:57.449Z,18.30
2022-12-31T03:58:59.479Z,18.75
2022-12-31T04:02:01.746Z,18.73
2022-12-31T04:05:03.813Z,18.38
2022-12-31T04:08:05.762Z,20.20
2022-12-31T04:11:07.710Z,19.67
2022-12-31T04:14:09.664Z,19.88
2022-12-31T04:17:12.070Z,18.47
2022-12-31T04:20:14.257Z,18.63
2022-12-31T04:23:16.214Z,20.90
2022-12-31T04:26:18.213Z,19.47
2022-12-31T04:29:20.198Z,19.48
2022-12-31T04:32:22.206Z,21.08
2022-12-31T04:35:24.164Z,20.40
2022-12-31T04:38:26.296Z,18.63
2022-12-31T04:41:28.247Z,19.10
2022-12-31T04:44:31.731Z,19.73
2022-12-31T04:47:34.086Z,18.00
2022-12-31T04:50:36.192Z,19.77
2022-12-31T04:53:38.195Z,18.15
2022-12-31T04:56:40.304Z,29.17
2022-12-31T04:59:42.281Z,32.08
2022-12-31T05:02:44.379Z,31.48
2022-12-31T05:05:46.510Z,27.65
2022-12-31T05:08:48.554Z,25.00
2022-12-31T05:11:50.582Z,25.88
2022-12-31T05:14:52.516Z,21.52
2022-12-31T05:17:54.981Z,19.90
2022-12-31T05:20:57.366Z,19.67
2022-12-31T05:23:59.388Z,19.88
2022-12-31T05:27:01.597Z,19.03
2022-12-31T05:30:06.748Z,19.55
2022-12-31T05:33:09.141Z,18.25
2022-12-31T05:36:11.102Z,19.48
2022-12-31T05:39:13.555Z,19.23
2022-12-31T05:42:15.871Z,20.23
2022-12-31T05:45:18.659Z,19.45
2022-12-31T05:48:20.709Z,17.97
2022-12-31T05:51:23.046Z,19.08
2022-12-31T05:54:26.365Z,18.10
2022-12-31T05:57:29.032Z,17.50
2022-12-31T06:00:31.347Z,19.17
2022-12-31T06:03:33.504Z,19.70
2022-12-31T06:06:35.543Z,16.85
2022-12-31T06:09:38.003Z,18.15
2022-12-31T06:12:40.019Z,18.63
2022-12-31T06:15:42.117Z,20.33
2022-12-31T06:18:44.241Z,20.10
2022-12-31T06:21:46.562Z,24.73
2022-12-31T06:24:48.590Z,24.98
2022-12-31T06:27:50.541Z,26.13
2022-12-31T06:30:52.994Z,26.02
2022-12-31T06:33:55.322Z,22.48
2022-12-31T06:36:57.822Z,22.67
2022-12-31T06:39:59.805Z,20.88
2022-12-31T06:43:02.021Z,20.90
2022-12-31T06:46:04.507Z,18.65
2022-12-31T06:49:07.053Z,19.03
2022-12-31T06:52:09.129Z,17.08
2022-12-31T06:55:11.693Z,17.95
2022-12-31T06:58:14.631Z,19.60
2022-12-31T07:01:28.679Z,18.98
2022-12-31T07:04:42.983Z,17.73
2022-12-31T07:07:45.298Z,17.52
2022-12-31T07:10:55.958Z,17.88
2022-12-31T07:14:10.333Z,19.75
2022-12-31T07:17:24.942Z,19.48
2022-12-31T07:20:31.079Z,18.03
2022-12-31T07:23:33.727Z,18.67
2022-12-31T07:26:56.986Z,21.67
2022-12-31T07:30:03.611Z,17.73
2022-12-31T07:33:05.647Z,17.27
2022-12-31T07:36:10.812Z,20.83
2022-12-31T07:39:13.703Z,20.75
2022-12-31T07:42:17.250Z,22.52
2022-12-31T07:45:31.595Z,25.10
2022-12-31T07:48:34.071Z,22.20
2022-12-31T07:51:36.308Z,20.10
2022-12-31T07:54:38.282Z,20.13
2022-12-31T07:57:55.869Z,19.52
2022-12-31T08:00:58.107Z,18.20
2022-12-31T08:04:02.752Z,17.65
2022-12-31T08:07:11.615Z,17.80
2022-12-31T08:10:19.384Z,19.83
2022-12-31T08:13:21.439Z,19.90
2022-12-31T08:16:24.239Z,22.42
2022-12-31T08:19:36.002Z,26.60
2022-12-31T08:22:56.472Z,21.10
2022-12-31T08:26:16.943Z,19.00
2022-12-31T08:29:33.885Z,19.65
2022-12-31T08:32:54.573Z,24.77
2022-12-31T08:35:59.389Z,22.63
2022-12-31T08:39:07.751Z,19.42
2022-12-31T08:42:14.607Z,18.77
2022-12-31T08:45:25.780Z,19.40
2022-12-31T08:48:30.691Z,26.48
2022-12-31T08:51:33.120Z,27.48
2022-12-31T08:54:35.409Z,49.67
2022-12-31T08:57:56.104Z,24.52
2022-12-31T09:00:59.063Z,20.90
2022-12-31T09:04:20.214Z,21.70
2022-12-31T09:07:23.868Z,21.10
2022-12-31T09:10:32.813Z,20.48
2022-12-31T09:13:50.872Z,20.65
2022-12-31T09:17:01.852Z,18.33
2022-12-31T09:20:04.458Z,18.83
2022-12-31T09:23:06.739Z,20.95
2022-12-31T09:26:13.868Z,98.03
2022-12-31T09:29:23.298Z,21.73
2022-12-31T09:32:44.173Z,69.47
2022-12-31T09:35:55.612Z,21.05
2022-12-31T09:39:03.401Z,20.33
2022-12-31T09:42:25.443Z,18.17
2022-12-31T09:45:27.839Z,18.90
2022-12-31T09:48:32.965Z,20.77
2022-12-31T09:51:38.996Z,19.50
2022-12-31T09:54:47.141Z,21.50
2022-12-31T09:57:55.671Z,19.48
2022-12-31T10:00:57.746Z,25.17
2022-12-31T10:04:04.178Z,20.95
2022-12-31T10:07:12.613Z,21.05
2022-12-31T10:10:24.679Z,20.05
2022-12-31T10:13:33.518Z,19.50
2022-12-31T10:16:43.046Z,18.73
2022-12-31T10:19:51.142Z,19.42
2022-12-31T10:22:56.846Z,18.60
2022-12-31T10:26:02.042Z,19.87
2022-12-31T10:29:23.680Z,32.45
2022-12-31T10:32:32.418Z,22.45
2022-12-31T10:35:44.011Z,19.45
2022-12-31T10:38:53.297Z,18.80
2022-12-31T10:42:05.728Z,18.48
2022-12-31T10:45:22.978Z,21.50
2022-12-31T10:48:25.021Z,20.60
2022-12-31T10:51:30.069Z,21.73
2022-12-31T10:54:41.537Z,28.85
2022-12-31T10:57:43.670Z,20.73
2022-12-31T11:00:46.015Z,21.02
2022-12-31T11:04:06.891Z,48.30
2022-12-31T11:07:35.488Z,37.50
2022-12-31T11:10:37.675Z,25.13
2022-12-31T11:13:42.582Z,20.25
2022-12-31T11:16:44.979Z,21.07
2022-12-31T11:20:05.643Z,31.52
2022-12-31T11:23:26.143Z,21.95
2022-12-31T11:26:47.884Z,19.75
2022-12-31T11:30:05.132Z,20.27
2022-12-31T11:33:15.904Z,21.05
2022-12-31T11:36:36.787Z,21.10
2022-12-31T11:39:41.859Z,20.25
2022-12-31T11:42:50.941Z,21.23
2022-12-31T11:45:53.907Z,22.30
2022-12-31T11:49:05.110Z,21.63
2022-12-31T11:52:17.037Z,20.37
2022-12-31T11:55:34.066Z,22.02
2022-12-31T11:58:36.398Z,29.20
2022-12-31T12:01:51.745Z,26.67
2022-12-31T12:04:53.855Z,23.13
2022-12-31T12:07:56.522Z,23.80
2022-12-31T12:11:03.809Z,26.92
2022-12-31T12:14:24.435Z,20.95
2022-12-31T12:17:32.549Z,21.57
2022-12-31T12:20:38.437Z,21.45
2022-12-31T12:23:40.492Z,20.88
2022-12-31T12:26:43.296Z,46.33
2022-12-31T12:29:47.411Z,31.40
2022-12-31T12:32:53.046Z,22.92
2022-12-31T12:36:05.597Z,21.42
2022-12-31T12:39:08.294Z,22.13
2022-12-31T12:42:13.890Z,21.73
2022-12-31T12:45:16.979Z,22.98
2022-12-31T12:48:44.835Z,23.55
2022-12-31T12:51:47.505Z,22.25
2022-12-31T12:55:08.601Z,23.23
2022-12-31T12:58:19.164Z,25.17
2022-12-31T13:01:21.609Z,27.15
2022-12-31T13:04:35.565Z,51.97
2022-12-31T13:07:44.039Z,43.00
2022-12-31T13:10:49.489Z,31.83
2022-12-31T13:14:15.004Z,29.02
2022-12-31T13:17:35.796Z,22.95
2022-12-31T13:20:40.966Z,23.07
2022-12-31T13:23:46.754Z,21.93
2022-12-31T13:26:54.894Z,22.45
2022-12-31T13:29:59.345Z,26.17
2022-12-31T13:33:02.029Z,22.90
2022-12-31T13:36:05.602Z,25.17
2022-12-31T13:39:12.772Z,24.20
2022-12-31T13:42:17.053Z,23.27
2022-12-31T13:45:22.622Z,23.30
2022-12-31T13:48:28.083Z,24.20
2022-12-31T13:51:32.866Z,24.37
2022-12-31T13:54:39.193Z,22.87
2022-12-31T13:57:45.992Z,23.30
2022-12-31T14:00:53.302Z,21.67
2022-12-31T14:04:13.968Z,21.48
2022-12-31T14:07:23.047Z,24.87
2022-12-31T14:10:48.611Z,33.53
2022-12-31T14:13:55.689Z,24.27
2022-12-31T14:16:59.937Z,21.83
2022-12-31T14:20:14.313Z,21.40
2022-12-31T14:23:22.323Z,21.33
2022-12-31T14:26:27.519Z,24.70
2022-12-31T14:29:34.261Z,30.98
2022-12-31T14:32:49.827Z,30.92
2022-12-31T14:36:10.117Z,30.17
2022-12-31T14:39:19.846Z,22.53
2022-12-31T14:42:21.778Z,20.80
2022-12-31T14:45:32.692Z,20.95
2022-12-31T14:48:39.331Z,20.83
2022-12-31T14:51:41.725Z,23.53
2022-12-31T14:54:44.135Z,22.77
2022-12-31T15:01:18.999Z,23.23
2022-12-31T15:04:49.305Z,27.98
2022-12-31T15:07:54.188Z,36.30
2022-12-31T15:11:15.525Z,34.67
2022-12-31T15:14:17.875Z,28.05
2022-12-31T15:17:23.258Z,30.88
2022-12-31T15:20:25.629Z,29.83
2022-12-31T15:23:46.263Z,29.47
2022-12-31T15:26:49.451Z,30.40
2022-12-31T15:29:51.579Z,32.30
2022-12-31T15:32:54.216Z,32.33
2022-12-31T15:35:56.624Z,28.55
2022-12-31T15:39:10.896Z,29.43
2022-12-31T15:42:37.745Z,26.65
2022-12-31T15:45:41.029Z,29.45
2022-12-31T15:49:02.039Z,28.95
2022-12-31T15:52:06.912Z,27.97
2022-12-31T15:55:08.971Z,28.92
2022-12-31T15:58:12.522Z,31.20
2022-12-31T16:01:24.190Z,43.88
2022-12-31T16:04:27.129Z,40.83
2022-12-31T16:07:29.156Z,41.38
2022-12-31T16:10:31.806Z,37.95
2022-12-31T16:13:35.232Z,40.92
2022-12-31T16:16:37.323Z,41.43
2022-12-31T16:19:43.499Z,43.15
2022-12-31T16:22:49.829Z,40.03
2022-12-31T16:25:52.596Z,40.57
2022-12-31T16:28:55.993Z,37.95
2022-12-31T16:31:58.219Z,38.15
2022-12-31T16:35:00.180Z,37.25
2022-12-31T16:38:03.706Z,38.73
2022-12-31T16:41:07.234Z,44.72
2022-12-31T16:44:12.638Z,37.47
2022-12-31T16:47:24.660Z,36.55
2022-12-31T16:50:26.676Z,46.37
2022-12-31T16:53:29.888Z,45.55
2022-12-31T16:56:34.204Z,40.20
2022-12-31T16:59:38.988Z,39.60
2022-12-31T17:02:43.378Z,40.67
2022-12-31T17:05:55.713Z,38.58
2022-12-31T17:08:59.573Z,40.97
2022-12-31T17:12:09.624Z,38.80
2022-12-31T17:15:17.583Z,39.37
2022-12-31T17:18:23.510Z,38.40
2022-12-31T17:21:26.441Z,44.20
2022-12-31T17:24:28.792Z,45.95
2022-12-31T17:27:30.869Z,50.65
2022-12-31T17:30:32.878Z,53.00
2022-12-31T17:33:35.278Z,58.42
2022-12-31T17:36:37.231Z,63.70
2022-12-31T17:39:41.745Z,57.38
2022-12-31T17:42:44.284Z,53.78
2022-12-31T17:45:46.577Z,51.58
2022-12-31T17:48:53.258Z,50.47
2022-12-31T17:51:55.243Z,53.53
2022-12-31T17:54:57.236Z,59.33
2022-12-31T17:57:59.575Z,56.85
2022-12-31T18:01:02.344Z,53.67
2022-12-31T18:04:06.108Z,55.08
2022-12-31T18:07:08.092Z,56.83
2022-12-31T18:10:10.506Z,56.30
2022-12-31T18:13:17.558Z,57.10
2022-12-31T18:16:19.688Z,53.25
2022-12-31T18:19:54.151Z,56.72
2022-12-31T18:22:44.647Z,57.33
2022-12-31T18:25:46.644Z,59.80
2022-12-31T18:28:48.831Z,57.17
2022-12-31T18:31:51.782Z,59.90
2022-12-31T18:34:53.841Z,55.17
2022-12-31T18:37:56.146Z,54.07
2022-12-31T18:40:58.837Z,53.45
2022-12-31T18:44:01.009Z,53.03
2022-12-31T18:47:02.949Z,53.45
2022-12-31T18:50:05.865Z,53.67
2022-12-31T18:53:08.443Z,54.78
2022-12-31T18:56:11.203Z,54.65
2022-12-31T18:59:13.725Z,61.00
2022-12-31T19:02:20.574Z,56.30
2022-12-31T19:05:26.555Z,55.35
2022-12-31T19:08:28.621Z,52.15
2022-12-31T19:11:32.977Z,55.70
2022-12-31T19:14:35.435Z,55.43
2022-12-31T19:17:37.400Z,55.38
2022-12-31T19:20:39.804Z,57.55
2022-12-31T19:23:41.826Z,50.72
2022-12-31T19:26:50.715Z,55.10
2022-12-31T19:29:52.641Z,52.25
2022-12-31T19:32:54.726Z,57.65
2022-12-31T19:35:56.744Z,52.70
2022-12-31T19:38:59.085Z,56.83
2022-12-31T19:42:01.223Z,54.42
2022-12-31T19:45:03.744Z,57.97
2022-12-31T19:48:05.789Z,54.83
2022-12-31T19:51:08.453Z,54.20
2022-12-31T19:54:12.273Z,50.20
2022-12-31T19:57:14.209Z,52.28
2022-12-31T20:00:17.088Z,54.60
2022-12-31T20:03:19.666Z,59.37
2022-12-31T20:06:22.134Z,56.05
2022-12-31T20:09:24.135Z,61.78
2022-12-31T20:12:26.484Z,55.63
2022-12-31T20:15:28.793Z,58.38
2022-12-31T20:18:31.185Z,58.28
2022-12-31T20:21:33.652Z,56.13
2022-12-31T20:24:35.682Z,53.72
2022-12-31T20:27:38.539Z,51.63
2022-12-31T20:30:41.054Z,49.67
2022-12-31T20:33:43.476Z,48.92
2022-12-31T20:36:45.461Z,50.97
2022-12-31T20:39:47.432Z,51.27
2022-12-31T20:42:49.444Z,55.03
2022-12-31T20:45:51.351Z,64.45
2022-12-31T20:48:54.597Z,62.67
2022-12-31T20:51:56.597Z,56.73
2022-12-31T20:54:58.627Z,54.53
2022-12-31T20:58:00.965Z,55.75
2022-12-31T21:01:05.511Z,51.67
2022-12-31T21:04:08.311Z,51.70
2022-12-31T21:07:10.406Z,48.28
2022-12-31T21:10:12.509Z,47.90
2022-12-31T21:13:14.513Z,50.15
2022-12-31T21:16:17.010Z,49.03
2022-12-31T21:19:19.080Z,58.88
2022-12-31T21:22:21.158Z,55.00
2022-12-31T21:25:23.177Z,50.75
2022-12-31T21:28:26.053Z,44.88
2022-12-31T21:31:28.504Z,41.95
2022-12-31T21:34:30.660Z,41.92
2022-12-31T21:37:59.302Z,42.63
2022-12-31T21:40:55.444Z,40.80
2022-12-31T21:43:57.892Z,41.17
2022-12-31T21:47:39.703Z,40.65
2022-12-31T21:50:42.567Z,40.60
2022-12-31T21:53:52.021Z,39.13
2022-12-31T21:57:01.534Z,41.17
2022-12-31T22:00:41.726Z,42.22
2022-12-31T22:03:44.494Z,41.60
2022-12-31T22:06:46.654Z,40.55
2022-12-31T22:09:48.693Z,39.33
2022-12-31T22:12:51.142Z,41.90
2022-12-31T22:15:56.258Z,41.35
2022-12-31T22:19:00.967Z,40.95
2022-12-31T22:22:02.969Z,39.70
2022-12-31T22:25:05.237Z,42.65
2022-12-31T22:31:32.798Z,48.75
2022-12-31T22:34:34.997Z,54.60
2022-12-31T22:37:56.127Z,37.25
2022-12-31T22:41:05.883Z,39.00
2022-12-31T22:44:08.208Z,38.53
2022-12-31T22:47:10.131Z,37.73
2022-12-31T22:50:12.138Z,38.85
2022-12-31T22:53:14.650Z,39.85
2022-12-31T22:56:17.147Z,40.33
2022-12-31T22:59:19.172Z,41.25
2022-12-31T23:02:21.365Z,41.45
2022-12-31T23:05:23.433Z,41.80
2022-12-31T23:08:25.827Z,44.75
2022-12-31T23:11:27.908Z,40.42
2022-12-31T23:14:48.536Z,39.08
2022-12-31T23:18:09.824Z,39.77
2022-12-31T23:21:30.341Z,40.55
2022-12-31T23:24:32.303Z,40.13
2022-12-31T23:27:34.705Z,43.63
2022-12-31T23:30:37.936Z,47.25
2022-12-31T23:33:40.780Z,70.90
2022-12-31T23:36:42.792Z,70.55
2022-12-31T23:39:45.246Z,65.35
2022-12-31T23:42:47.276Z,67.35
2022-12-31T23:45:49.952Z,80.10
2022-12-31T23:48:53.775Z,86.40
2022-12-31T23:51:56.084Z,75.82
2022-12-31T23:54:58.065Z,69.53
2022-12-31T23:58:00.009Z,65.07
